Time;durP1;ratioP1;P1;durP2;ratioP2;P2;SDS_P1;SDS_P2;PMS_P1;PMS_P2;Temp;Humidity;BMP_temperature;BMP_pressure;BME280_temperature;BME280_humidity;BME280_pressure;Samples;Min_cycle;Max_cycle;Signal;HPM_P1;HPM_P2
2021/03/16 00:01:05;;;;;;;5.72;1.17;;;9.70;69.80;;;;;;5079373;28;20426;-82
2021/03/16 00:03:32;;;;;;;0.70;0.38;;;9.70;69.90;;;;;;5055112;28;20028;-83
2021/03/16 00:05:58;;;;;;;2.97;0.60;;;9.70;69.90;;;;;;5040388;28;20477;-81
2021/03/16 00:08:24;;;;;;;0.75;0.20;;;9.70;70.00;;;;;;5062339;28;20024;-81
2021/03/16 00:10:51;;;;;;;3.15;0.38;;;9.60;70.00;;;;;;5074832;28;20063;-82
2021/03/16 00:13:17;;;;;;;2.60;0.30;;;9.70;70.10;;;;;;5056449;28;20037;-81
2021/03/16 00:15:43;;;;;;;2.97;0.17;;;9.60;70.00;;;;;;5055789;28;20041;-85
2021/03/16 00:18:14;;;;;;;1.48;0.55;;;9.60;70.30;;;;;;5075636;28;20045;-81
2021/03/16 00:20:43;;;;;;;;;;;9.60;70.10;;;;;;5076597;28;20040;-83
2021/03/16 00:23:09;;;;;;;5.47;0.55;;;9.60;70.20;;;;;;5077887;28;19909;-81
2021/03/16 00:25:36;;;;;;;0.90;0.30;;;9.60;70.00;;;;;;5073684;28;20021;-82
2021/03/16 00:28:02;;;;;;;4.28;0.52;;;9.60;70.10;;;;;;5071834;28;20024;-82
2021/03/16 00:30:29;;;;;;;2.15;0.25;;;9.50;70.10;;;;;;5072190;28;20041;-81
2021/03/16 00:32:55;;;;;;;0.65;0.40;;;9.50;70.20;;;;;;5057085;28;20035;-81
2021/03/16 00:35:21;;;;;;;0.22;0.10;;;9.50;70.20;;;;;;5056575;28;20036;-84
2021/03/16 00:37:47;;;;;;;1.95;0.60;;;9.50;70.20;;;;;;5037568;28;20080;-80
2021/03/16 00:40:13;;;;;;;13.25;0.82;;;9.50;70.30;;;;;;5074248;28;20024;-80
2021/03/16 00:42:40;;;;;;;2.15;0.65;;;9.50;70.30;;;;;;5071140;28;20036;-81
2021/03/16 00:45:07;;;;;;;2.45;0.30;;;9.40;70.30;;;;;;5037473;28;20067;-81
2021/03/16 00:47:33;;;;;;;0.28;0.08;;;9.40;70.30;;;;;;5076383;28;20036;-81
2021/03/16 00:50:01;;;;;;;0.38;0.28;;;9.40;70.40;;;;;;5075078;28;20041;-81
2021/03/16 00:52:27;;;;;;;1.02;0.30;;;9.40;70.50;;;;;;5074171;28;20031;-81
2021/03/16 00:54:53;;;;;;;0.93;0.47;;;9.40;70.50;;;;;;5056796;28;20031;-81
2021/03/16 00:57:19;;;;;;;2.58;0.47;;;9.30;70.50;;;;;;5087984;28;20401;-81
2021/03/16 00:59:45;;;;;;;1.60;0.80;;;9.30;70.50;;;;;;5060466;28;20033;-81
2021/03/16 01:02:11;;;;;;;1.80;0.95;;;9.30;70.50;;;;;;5077043;28;20481;-83
2021/03/16 01:04:37;;;;;;;1.67;0.32;;;9.30;70.50;;;;;;5060321;28;20054;-81
2021/03/16 01:07:03;;;;;;;2.13;0.68;;;9.20;70.50;;;;;;5076408;28;20035;-81
2021/03/16 01:09:29;;;;;;;1.02;0.43;;;9.20;70.50;;;;;;5085964;28;20032;-81
2021/03/16 01:11:55;;;;;;;0.57;0.32;;;9.20;70.50;;;;;;5075325;28;20409;-82
2021/03/16 01:14:22;;;;;;;5.68;0.52;;;9.20;70.60;;;;;;5078282;28;20028;-82
2021/03/16 01:16:48;;;;;;;1.17;0.38;;;9.20;70.60;;;;;;5059925;28;20040;-81
2021/03/16 01:19:14;;;;;;;0.60;0.38;;;9.10;70.60;;;;;;5077388;28;20035;-81
2021/03/16 01:21:40;;;;;;;3.45;0.50;;;9.10;70.60;;;;;;5074141;28;20047;-83
2021/03/16 01:24:06;;;;;;;0.00;0.00;;;9.10;70.70;;;;;;5077535;28;20033;-81
2021/03/16 01:26:32;;;;;;;1.30;0.63;;;9.10;70.80;;;;;;5059903;28;20036;-88
2021/03/16 01:29:01;;;;;;;9.30;0.95;;;9.10;70.70;;;;;;5076442;28;20055;-82
2021/03/16 01:31:27;;;;;;;1.98;0.50;;;9.10;70.80;;;;;;5077045;28;20028;-81
2021/03/16 01:33:53;;;;;;;0.88;0.20;;;9.00;70.70;;;;;;5074442;28;20036;-81
2021/03/16 01:36:19;;;;;;;1.15;0.50;;;9.00;70.70;;;;;;5089802;28;20043;-81
2021/03/16 01:38:45;;;;;;;3.13;1.13;;;9.00;70.80;;;;;;5085742;28;20469;-82
2021/03/16 01:41:11;;;;;;;2.95;0.73;;;9.00;70.80;;;;;;5045011;28;20040;-81
2021/03/16 01:43:37;;;;;;;0.77;0.32;;;9.00;70.80;;;;;;5076409;28;20039;-82
2021/03/16 01:46:05;;;;;;;2.30;0.30;;;9.00;70.80;;;;;;5087297;28;20361;-82
2021/03/16 01:48:33;;;;;;;0.20;0.13;;;9.00;70.90;;;;;;5074639;28;20032;-82
2021/03/16 01:51:06;;;;;;;1.67;0.63;;;8.90;70.90;;;;;;5077637;28;20045;-81
2021/03/16 01:53:33;;;;;;;0.80;0.43;;;8.90;70.90;;;;;;5058984;28;20374;-80
2021/03/16 01:56:00;;;;;;;0.70;0.20;;;8.90;70.90;;;;;;5060908;28;20622;-83
2021/03/16 01:58:26;;;;;;;4.97;0.68;;;8.90;70.90;;;;;;5059376;28;20389;-81
2021/03/16 02:00:52;;;;;;;3.42;0.50;;;8.90;70.90;;;;;;5072961;28;20040;-80
2021/03/16 02:03:18;;;;;;;1.55;0.15;;;8.90;71.00;;;;;;5063007;28;20090;-81
2021/03/16 02:05:45;;;;;;;2.63;0.80;;;8.80;70.90;;;;;;5077403;28;20377;-81
2021/03/16 02:08:26;;;;;;;1.08;0.30;;;8.80;70.90;;;;;;5058676;28;20033;-83
2021/03/16 02:11:13;;;;;;;0.10;0.00;;;8.80;70.90;;;;;;5079576;28;20032;-81
2021/03/16 02:13:58;;;;;;;0.35;0.15;;;8.80;70.90;;;;;;5084759;28;20524;-81
2021/03/16 02:16:46;;;;;;;0.57;0.35;;;8.80;71.00;;;;;;5076608;28;20055;-83
2021/03/16 02:19:28;;;;;;;2.35;0.50;;;8.80;71.00;;;;;;5041854;28;20051;-81
2021/03/16 02:21:54;;;;;;;0.57;0.30;;;8.70;71.00;;;;;;5071139;28;20028;-81
2021/03/16 02:24:33;;;;;;;1.38;0.40;;;8.70;71.00;;;;;;5080230;28;20033;-81
2021/03/16 02:27:13;;;;;;;2.97;0.60;;;8.70;71.00;;;;;;5041570;28;20047;-81
2021/03/16 02:29:43;;;;;;;5.22;0.95;;;8.70;71.10;;;;;;5059983;28;20389;-80
2021/03/16 02:32:11;;;;;;;6.93;0.70;;;8.70;71.10;;;;;;5045355;28;20090;-83
2021/03/16 02:34:39;;;;;;;1.00;0.50;;;8.70;71.10;;;;;;5044967;28;20044;-81
2021/03/16 02:37:05;;;;;;;2.08;0.35;;;8.60;71.10;;;;;;5056610;28;20484;-81
2021/03/16 02:39:32;;;;;;;1.20;0.20;;;8.60;71.20;;;;;;5059636;28;20043;-82
2021/03/16 02:41:58;;;;;;;3.70;0.88;;;8.60;71.30;;;;;;5058914;28;20103;-81
2021/03/16 02:44:24;;;;;;;1.48;0.30;;;8.60;71.30;;;;;;5075999;28;20055;-81
2021/03/16 02:46:50;;;;;;;0.15;0.05;;;8.60;71.30;;;;;;5058445;28;20402;-82
2021/03/16 02:49:16;;;;;;;0.75;0.20;;;8.60;71.30;;;;;;5058194;28;20039;-81
2021/03/16 02:51:43;;;;;;;1.13;0.82;;;8.60;71.30;;;;;;5054554;28;20519;-81
2021/03/16 02:54:09;;;;;;;1.73;1.00;;;8.60;71.30;;;;;;5058965;28;20032;-81
2021/03/16 02:56:35;;;;;;;1.55;0.32;;;8.60;71.30;;;;;;5058545;28;20378;-82
2021/03/16 02:59:03;;;;;;;0.88;0.10;;;8.60;71.30;;;;;;5057817;28;20059;-81
2021/03/16 03:01:29;;;;;;;3.72;1.50;;;8.50;71.30;;;;;;5067231;28;20029;-82
2021/03/16 03:03:55;;;;;;;1.13;0.35;;;8.50;71.40;;;;;;5042365;28;20490;-81
2021/03/16 03:06:21;;;;;;;4.28;0.32;;;8.50;71.50;;;;;;5051746;28;20037;-82
2021/03/16 03:08:47;;;;;;;3.30;1.00;;;8.50;71.50;;;;;;5043277;28;20235;-82
2021/03/16 03:11:14;;;;;;;0.40;0.13;;;8.50;71.50;;;;;;5052752;28;20032;-82
2021/03/16 03:13:40;;;;;;;0.90;0.43;;;8.50;71.60;;;;;;5051668;28;20215;-82
2021/03/16 03:16:06;;;;;;;2.20;0.60;;;8.50;71.60;;;;;;5069590;28;20063;-83
2021/03/16 03:18:33;;;;;;;0.50;0.30;;;8.50;71.60;;;;;;5050587;28;20048;-81
2021/03/16 03:21:03;;;;;;;1.70;0.43;;;8.50;71.70;;;;;;5052476;28;20027;-81
2021/03/16 03:23:31;;;;;;;2.92;0.88;;;8.40;71.70;;;;;;5054655;28;20040;-81
2021/03/16 03:26:02;;;;;;;1.10;0.68;;;8.40;71.70;;;;;;5051109;28;20051;-81
2021/03/16 03:28:32;;;;;;;7.38;1.20;;;8.40;71.70;;;;;;5047244;28;20032;-82
2021/03/16 03:31:02;;;;;;;0.22;0.10;;;8.40;71.80;;;;;;5032889;28;20390;-82
2021/03/16 03:33:29;;;;;;;0.25;0.20;;;8.40;71.80;;;;;;5051642;28;20032;-81
2021/03/16 03:35:56;;;;;;;0.40;0.20;;;8.40;71.80;;;;;;5035625;28;20051;-82
2021/03/16 03:38:22;;;;;;;1.33;0.25;;;8.40;71.90;;;;;;5075908;28;20044;-81
2021/03/16 03:40:48;;;;;;;1.15;0.52;;;8.30;71.80;;;;;;5061186;28;20031;-81
2021/03/16 03:43:15;;;;;;;0.60;0.40;;;8.40;71.90;;;;;;5075249;28;20454;-83
2021/03/16 03:45:41;;;;;;;5.95;0.52;;;8.30;71.90;;;;;;5069540;28;20050;-81
2021/03/16 03:48:08;;;;;;;0.90;0.40;;;8.30;71.90;;;;;;5040845;28;20028;-82
2021/03/16 03:50:36;;;;;;;0.50;0.08;;;8.30;71.90;;;;;;5058331;28;20381;-81
2021/03/16 03:53:02;;;;;;;1.38;0.30;;;8.30;71.90;;;;;;5057214;28;20040;-80
2021/03/16 03:55:28;;;;;;;0.60;0.28;;;8.30;72.00;;;;;;5064589;28;20028;-81
2021/03/16 03:57:54;;;;;;;0.65;0.20;;;8.30;72.00;;;;;;5072382;28;20051;-80
2021/03/16 04:00:21;;;;;;;1.73;0.57;;;8.30;72.00;;;;;;5055810;28;20024;-83
2021/03/16 04:02:47;;;;;;;1.42;0.60;;;8.30;72.10;;;;;;5075256;28;20039;-82
2021/03/16 04:05:14;;;;;;;0.70;0.43;;;8.20;72.10;;;;;;5059294;28;20052;-83
2021/03/16 04:07:40;;;;;;;0.32;0.20;;;8.20;72.10;;;;;;5057670;28;20052;-80
2021/03/16 04:10:08;;;;;;;0.38;0.05;;;8.20;72.20;;;;;;5059572;28;20364;-81
2021/03/16 04:12:35;;;;;;;1.08;0.50;;;8.20;72.20;;;;;;5053576;28;20043;-81
2021/03/16 04:15:01;;;;;;;4.68;0.47;;;8.20;72.30;;;;;;5049136;28;20473;-81
2021/03/16 04:17:27;;;;;;;0.60;0.35;;;8.20;72.40;;;;;;5058085;28;20032;-82
2021/03/16 04:19:56;;;;;;;1.88;0.30;;;8.20;73.10;;;;;;5057654;28;20036;-81
2021/03/16 04:22:23;;;;;;;0.70;0.30;;;8.10;72.30;;;;;;5040474;28;20063;-81
2021/03/16 04:24:50;;;;;;;2.55;0.30;;;8.10;72.30;;;;;;5071152;28;20037;-83
2021/03/16 04:27:16;;;;;;;0.30;0.10;;;8.10;72.30;;;;;;5056946;28;20035;-82
2021/03/16 04:29:42;;;;;;;0.55;0.32;;;8.10;72.40;;;;;;5056875;28;20032;-82
2021/03/16 04:32:11;;;;;;;0.57;0.30;;;8.10;72.40;;;;;;5081953;28;20040;-81
2021/03/16 04:34:37;;;;;;;2.60;0.45;;;8.10;72.40;;;;;;5068002;28;20035;-81
2021/03/16 04:37:03;;;;;;;1.73;0.63;;;8.10;72.40;;;;;;5058147;28;20045;-81
2021/03/16 04:39:29;;;;;;;1.55;0.47;;;8.10;72.40;;;;;;5075283;28;20041;-80
2021/03/16 04:41:55;;;;;;;0.93;0.38;;;8.10;72.50;;;;;;5079295;28;20047;-81
2021/03/16 04:44:22;;;;;;;0.70;0.10;;;8.10;72.50;;;;;;5061023;28;20040;-81
2021/03/16 04:46:48;;;;;;;0.28;0.08;;;8.10;72.50;;;;;;5081583;28;20048;-81
2021/03/16 04:49:14;;;;;;;0.25;0.03;;;8.10;72.50;;;;;;5060095;28;20385;-81
2021/03/16 04:51:40;;;;;;;0.63;0.28;;;8.10;72.60;;;;;;5090410;28;20028;-81
2021/03/16 04:54:06;;;;;;;1.40;0.47;;;8.10;72.50;;;;;;5063097;28;20221;-81
2021/03/16 04:56:33;;;;;;;0.20;0.10;;;8.00;72.50;;;;;;5064239;28;20299;-85
2021/03/16 04:58:59;;;;;;;1.55;0.52;;;8.00;72.70;;;;;;5065944;28;20032;-81
2021/03/16 05:01:25;;;;;;;0.50;0.43;;;8.00;72.60;;;;;;5059723;28;20032;-80
2021/03/16 05:03:51;;;;;;;0.10;0.10;;;8.00;73.40;;;;;;5057614;28;20043;-81
2021/03/16 05:06:18;;;;;;;1.00;0.28;;;8.00;72.60;;;;;;5061128;28;20036;-82
2021/03/16 05:08:44;;;;;;;1.05;0.10;;;8.00;72.60;;;;;;5069669;28;20032;-82
2021/03/16 05:11:10;;;;;;;0.35;0.10;;;8.00;72.60;;;;;;5068005;28;20036;-81
2021/03/16 05:13:36;;;;;;;0.75;0.32;;;7.90;72.60;;;;;;5041313;28;20367;-80
2021/03/16 05:16:02;;;;;;;0.57;0.30;;;8.00;72.70;;;;;;5075674;28;20393;-80
2021/03/16 05:18:28;;;;;;;0.98;0.38;;;7.90;72.70;;;;;;5075045;28;20047;-81
2021/03/16 05:20:54;;;;;;;1.00;0.30;;;7.90;72.70;;;;;;5043925;28;20461;-80
2021/03/16 05:23:20;;;;;;;4.15;1.02;;;7.90;72.70;;;;;;5059018;28;20025;-80
2021/03/16 05:25:47;;;;;;;0.65;0.32;;;7.90;72.70;;;;;;5054450;28;20025;-80
2021/03/16 05:28:13;;;;;;;0.28;0.10;;;7.90;72.70;;;;;;5059721;28;20024;-81
2021/03/16 05:30:39;;;;;;;1.02;0.17;;;7.90;72.70;;;;;;5073404;28;20036;-80
2021/03/16 05:33:05;;;;;;;0.15;0.00;;;7.90;72.80;;;;;;5078225;28;20028;-80
2021/03/16 05:35:31;;;;;;;1.00;0.47;;;7.90;72.80;;;;;;5060892;28;20033;-80
2021/03/16 05:37:58;;;;;;;0.20;0.10;;;7.90;72.80;;;;;;5078126;28;20408;-81
2021/03/16 05:40:25;;;;;;;0.22;0.17;;;7.80;72.80;;;;;;5060067;28;20024;-81
2021/03/16 05:42:52;;;;;;;1.10;0.30;;;7.80;72.70;;;;;;5051108;28;20040;-81
2021/03/16 05:45:19;;;;;;;0.20;0.10;;;7.80;72.80;;;;;;5074684;28;20040;-81
2021/03/16 05:47:46;;;;;;;2.83;0.50;;;7.80;72.90;;;;;;5057625;28;20032;-82
2021/03/16 05:50:13;;;;;;;0.98;0.50;;;7.80;72.90;;;;;;5058501;28;20493;-79
2021/03/16 05:52:39;;;;;;;1.65;0.55;;;7.80;72.90;;;;;;5059567;28;20377;-81
2021/03/16 05:55:07;;;;;;;4.65;0.47;;;7.80;72.90;;;;;;5058473;28;20029;-81
2021/03/16 05:57:33;;;;;;;3.45;0.47;;;7.80;72.90;;;;;;5074669;28;20416;-80
2021/03/16 05:59:59;;;;;;;0.80;0.20;;;7.80;72.90;;;;;;5060037;28;20033;-80
2021/03/16 06:02:25;;;;;;;1.38;0.50;;;7.70;72.90;;;;;;5038924;28;20037;-81
2021/03/16 06:04:51;;;;;;;0.47;0.10;;;7.70;72.90;;;;;;5037643;28;20040;-80
2021/03/16 06:07:18;;;;;;;0.10;0.00;;;7.70;72.90;;;;;;5050138;28;20043;-81
2021/03/16 06:09:44;;;;;;;1.52;0.73;;;7.70;72.90;;;;;;5038633;28;20070;-83
2021/03/16 06:12:10;;;;;;;0.52;0.35;;;7.70;72.90;;;;;;5077849;28;20033;-80
2021/03/16 06:14:37;;;;;;;0.88;0.50;;;7.70;73.00;;;;;;5059234;28;20047;-80
2021/03/16 06:17:04;;;;;;;0.90;0.32;;;7.70;73.00;;;;;;5056016;28;20037;-80
2021/03/16 06:19:31;;;;;;;0.40;0.20;;;7.70;73.00;;;;;;5059365;28;20035;-80
2021/03/16 06:21:59;;;;;;;0.32;0.10;;;7.70;73.10;;;;;;5073960;28;20457;-81
2021/03/16 06:24:25;;;;;;;1.85;0.25;;;7.70;73.10;;;;;;5074281;28;20044;-80
2021/03/16 06:26:51;;;;;;;0.30;0.10;;;7.70;73.10;;;;;;5022377;28;20052;-82
2021/03/16 06:29:17;;;;;;;0.20;0.10;;;7.70;73.10;;;;;;5047443;28;20477;-81
2021/03/16 06:31:43;;;;;;;1.38;0.55;;;7.70;73.10;;;;;;5065787;28;20044;-82
2021/03/16 06:34:29;;;;;;;1.23;0.13;;;7.70;73.10;;;;;;5072301;28;20031;-81
2021/03/16 06:36:59;;;;;;;0.30;0.17;;;7.70;73.00;;;;;;5058901;28;20412;-81
2021/03/16 06:39:26;;;;;;;0.10;0.03;;;7.70;73.00;;;;;;5057166;28;20032;-84
2021/03/16 06:41:52;;;;;;;7.57;1.85;;;7.70;73.00;;;;;;5076881;28;20039;-82
2021/03/16 06:44:19;;;;;;;1.35;0.57;;;7.70;73.00;;;;;;5059052;28;20047;-80
2021/03/16 06:46:58;;;;;;;0.32;0.13;;;7.70;73.00;;;;;;5057955;28;20045;-81
2021/03/16 06:49:25;;;;;;;1.05;0.25;;;7.80;72.90;;;;;;5058387;28;20027;-81
2021/03/16 06:51:54;;;;;;;1.95;0.38;;;7.90;72.90;;;;;;5055246;28;20016;-81
2021/03/16 06:54:22;;;;;;;0.63;0.30;;;7.90;72.70;;;;;;5057166;28;20421;-81
2021/03/16 06:56:55;;;;;;;1.02;0.57;;;7.90;72.60;;;;;;5046650;28;20037;-81
2021/03/16 06:59:26;;;;;;;1.13;0.43;;;8.10;72.60;;;;;;5063447;28;20052;-81
2021/03/16 07:01:52;;;;;;;1.15;0.60;;;8.30;72.20;;;;;;5063518;28;20044;-80
2021/03/16 07:04:19;;;;;;;0.40;0.30;;;8.50;71.70;;;;;;5076272;28;20042;-80
2021/03/16 07:06:46;;;;;;;1.35;0.52;;;8.80;71.10;;;;;;5041530;28;20485;-81
2021/03/16 07:09:13;;;;;;;0.40;0.28;;;9.10;70.70;;;;;;5048377;28;20048;-81
2021/03/16 07:11:40;;;;;;;0.50;0.30;;;9.30;70.30;;;;;;5075437;28;20025;-81
2021/03/16 07:14:07;;;;;;;0.10;0.00;;;9.50;70.00;;;;;;5058225;28;20040;-81
2021/03/16 07:16:36;;;;;;;0.30;0.20;;;9.60;69.70;;;;;;5075187;28;20039;-83
2021/03/16 07:19:05;;;;;;;0.47;0.28;;;9.80;69.60;;;;;;5055563;28;20037;-83
2021/03/16 07:21:40;;;;;;;2.20;0.68;;;10.00;69.40;;;;;;5056298;28;20028;-85
2021/03/16 07:24:10;;;;;;;1.13;0.35;;;10.20;69.10;;;;;;5043087;28;20084;-84
2021/03/16 07:26:37;;;;;;;0.93;0.60;;;10.40;68.80;;;;;;5073455;28;20477;-82
2021/03/16 07:29:04;;;;;;;5.40;0.55;;;10.70;68.60;;;;;;5050598;28;20044;-83
2021/03/16 07:31:38;;;;;;;0.75;0.17;;;10.90;68.30;;;;;;5069574;28;20025;-83
2021/03/16 07:34:05;;;;;;;2.50;0.52;;;11.00;68.20;;;;;;5051676;28;20346;-83
2021/03/16 07:36:32;;;;;;;0.73;0.17;;;11.20;68.10;;;;;;5070745;28;20029;-88
2021/03/16 07:38:58;;;;;;;0.40;0.13;;;11.30;68.00;;;;;;5048513;28;20052;-86
2021/03/16 07:41:25;;;;;;;2.05;0.45;;;11.50;67.90;;;;;;5050396;28;20033;-85
2021/03/16 07:44:10;;;;;;;1.27;0.30;;;11.70;67.70;;;;;;5051711;28;20040;-85
2021/03/16 07:46:43;;;;;;;1.45;0.20;;;12.00;67.50;;;;;;5049697;28;20036;-86
2021/03/16 07:49:11;;;;;;;0.95;0.20;;;12.20;67.20;;;;;;5068839;28;20028;-85
2021/03/16 07:51:39;;;;;;;7.57;0.80;;;12.50;67.00;;;;;;5066399;28;20485;-86
2021/03/16 07:54:06;;;;;;;0.28;0.10;;;12.70;66.80;;;;;;5053792;28;20020;-87
2021/03/16 07:56:34;;;;;;;1.45;0.50;;;12.90;66.60;;;;;;5053449;28;20041;-87
2021/03/16 07:59:01;;;;;;;1.95;0.38;;;13.10;66.50;;;;;;5057978;28;20365;-90
2021/03/16 08:01:27;;;;;;;0.70;0.30;;;13.30;66.20;;;;;;5044493;28;20489;-85
2021/03/16 08:04:09;;;;;;;6.75;0.70;;;13.50;66.00;;;;;;5055255;28;20055;-87
2021/03/16 08:06:36;;;;;;;5.60;0.43;;;13.80;65.80;;;;;;5079076;28;20043;-88
2021/03/16 08:09:04;;;;;;;1.35;0.45;;;13.90;65.60;;;;;;5048454;28;20021;-89
2021/03/16 08:11:37;;;;;;;3.95;0.45;;;14.10;65.50;;;;;;5064523;28;20036;-90
2021/03/16 08:14:04;;;;;;;1.92;0.63;;;14.30;65.50;;;;;;5062918;28;20033;-90
2021/03/16 08:16:36;;;;;;;1.80;0.40;;;14.50;65.30;;;;;;5081734;28;20033;-89
2021/03/16 08:19:09;;;;;;;0.82;0.22;;;14.70;65.20;;;;;;5060978;28;20036;-90
2021/03/16 08:21:36;;;;;;;0.55;0.20;;;14.90;65.00;;;;;;5077323;28;20421;-92
2021/03/16 08:24:14;;;;;;;0.35;0.10;;;15.00;64.90;;;;;;5082665;28;20067;-93
2021/03/16 08:26:47;;;;;;;0.52;0.17;;;15.20;65.00;;;;;;5081060;28;20047;-90
2021/03/16 08:29:14;;;;;;;0.98;0.20;;;15.30;64.90;;;;;;5049025;28;20393;-88
2021/03/16 08:31:40;;;;;;;0.63;0.30;;;15.30;65.00;;;;;;5062663;28;20032;-92
2021/03/16 08:34:07;;;;;;;2.75;0.32;;;15.20;65.20;;;;;;5075087;28;20048;-89
2021/03/16 08:36:41;;;;;;;1.20;0.30;;;15.20;65.50;;;;;;5059208;28;20028;-88
2021/03/16 08:39:07;;;;;;;1.05;0.30;;;15.20;65.80;;;;;;5064994;28;20051;-86
2021/03/16 08:41:33;;;;;;;10.68;0.68;;;15.30;65.90;;;;;;5051487;28;20040;-88
2021/03/16 08:43:59;;;;;;;3.05;0.30;;;15.20;65.90;;;;;;5078024;28;20043;-88
2021/03/16 08:46:33;;;;;;;1.30;0.50;;;15.10;66.20;;;;;;5047772;28;20544;-89
2021/03/16 08:48:59;;;;;;;2.35;0.40;;;15.00;66.60;;;;;;5061104;28;20035;-86
2021/03/16 08:51:27;;;;;;;0.47;0.35;;;14.90;66.60;;;;;;5061912;28;20045;-84
2021/03/16 08:53:53;;;;;;;0.77;0.10;;;15.00;66.60;;;;;;5048547;28;20036;-84
2021/03/16 08:56:20;;;;;;;1.17;0.45;;;15.20;66.60;;;;;;5063893;28;20501;-87
2021/03/16 08:58:46;;;;;;;1.73;0.88;;;15.10;66.50;;;;;;5069994;28;20053;-87
2021/03/16 09:01:23;;;;;;;0.98;0.20;;;15.10;66.70;;;;;;5039714;28;20060;-86
2021/03/16 09:03:51;;;;;;;2.85;0.82;;;15.20;66.70;;;;;;5074416;28;20028;-85
2021/03/16 09:06:19;;;;;;;5.38;0.40;;;15.30;66.30;;;;;;5079787;28;20024;-87
2021/03/16 09:08:51;;;;;;;0.93;0.40;;;15.40;66.20;;;;;;5057046;28;20059;-87
2021/03/16 09:11:27;;;;;;;1.13;0.52;;;15.40;66.20;;;;;;5064852;28;20377;-85
2021/03/16 09:13:54;;;;;;;2.88;0.52;;;15.50;66.20;;;;;;5081538;28;20044;-83
2021/03/16 09:16:24;;;;;;;1.05;0.40;;;15.70;65.90;;;;;;5059147;28;20496;-88
2021/03/16 09:18:50;;;;;;;2.90;0.45;;;15.90;65.60;;;;;;5045367;28;20055;-90
2021/03/16 09:21:16;;;;;;;2.80;0.88;;;16.10;65.30;;;;;;5070066;28;20032;-90
2021/03/16 09:23:42;;;;;;;0.60;0.22;;;16.20;65.00;;;;;;5057933;28;20031;-92
2021/03/16 09:26:08;;;;;;;0.47;0.10;;;16.10;64.90;;;;;;5048313;28;20028;-87
2021/03/16 09:28:35;;;;;;;5.57;0.52;;;15.90;65.20;;;;;;5042428;28;20025;-88
2021/03/16 09:31:01;;;;;;;1.08;0.30;;;15.80;65.60;;;;;;5088714;28;20028;-92
2021/03/16 09:33:27;;;;;;;1.98;0.55;;;15.70;65.90;;;;;;5058196;28;20035;-92
2021/03/16 09:35:59;;;;;;;0.30;0.20;;;15.60;65.90;;;;;;5043860;28;20036;-95
2021/03/16 09:38:25;;;;;;;1.23;0.47;;;15.60;66.10;;;;;;5060038;28;20025;-93
2021/03/16 09:40:52;;;;;;;0.65;0.22;;;15.50;66.10;;;;;;5056711;28;20028;-87
2021/03/16 09:43:23;;;;;;;1.17;0.45;;;15.50;66.10;;;;;;5040874;28;20040;-89
2021/03/16 09:45:59;;;;;;;0.98;0.50;;;15.50;65.80;;;;;;5054118;28;20033;-89
2021/03/16 09:48:26;;;;;;;2.10;0.38;;;15.40;65.80;;;;;;5055255;28;20032;-88
2021/03/16 09:50:53;;;;;;;1.55;0.30;;;15.40;65.90;;;;;;5047291;28;20041;-89
2021/03/16 09:53:19;;;;;;;1.33;0.20;;;15.60;65.70;;;;;;5052758;28;20486;-91
2021/03/16 09:55:58;;;;;;;0.40;0.10;;;15.80;65.00;;;;;;5053157;28;20488;-88
2021/03/16 09:58:26;;;;;;;2.30;0.60;;;15.80;64.80;;;;;;5039667;28;20024;-87
2021/03/16 10:00:52;;;;;;;0.95;0.32;;;15.70;64.60;;;;;;5038486;28;20033;-88
2021/03/16 10:03:19;;;;;;;2.53;0.70;;;15.50;64.80;;;;;;5055559;28;20024;-87
2021/03/16 10:05:45;;;;;;;0.25;0.05;;;15.40;65.00;;;;;;5032614;28;20037;-87
2021/03/16 10:08:24;;;;;;;3.45;0.40;;;15.30;65.10;;;;;;5067218;28;20040;-88
2021/03/16 10:10:50;;;;;;;0.82;0.45;;;15.20;65.30;;;;;;5062170;28;20032;-85
2021/03/16 10:13:16;;;;;;;1.65;0.40;;;15.20;65.40;;;;;;5072744;28;20037;-84
2021/03/16 10:15:44;;;;;;;0.43;0.20;;;15.30;65.30;;;;;;5071157;28;20047;-87
2021/03/16 10:18:15;;;;;;;0.68;0.17;;;15.30;64.90;;;;;;5055701;28;20027;-83
2021/03/16 10:20:43;;;;;;;0.35;0.10;;;15.30;64.60;;;;;;5054837;28;20044;-83
2021/03/16 10:23:11;;;;;;;0.32;0.25;;;15.20;64.70;;;;;;5054703;28;20466;-84
2021/03/16 10:25:37;;;;;;;0.10;0.03;;;15.20;64.90;;;;;;5038543;28;20032;-88
2021/03/16 10:28:05;;;;;;;0.45;0.15;;;15.20;64.80;;;;;;5054303;28;20476;-86
2021/03/16 10:30:38;;;;;;;0.10;0.00;;;15.30;64.50;;;;;;5036709;28;20036;-90
2021/03/16 10:33:08;;;;;;;0.47;0.03;;;15.30;64.30;;;;;;5039836;28;20033;-90
2021/03/16 10:35:35;;;;;;;0.25;0.00;;;15.30;64.30;;;;;;5027523;28;20397;-89
2021/03/16 10:38:03;;;;;;;2.45;0.32;;;15.50;64.20;;;;;;5057555;28;20374;-87
2021/03/16 10:40:30;;;;;;;0.17;0.00;;;15.60;63.80;;;;;;5057754;28;20028;-82
2021/03/16 10:42:56;;;;;;;0.82;0.32;;;15.70;63.70;;;;;;5055711;28;20020;-80
2021/03/16 10:45:22;;;;;;;0.38;0.20;;;15.80;63.50;;;;;;5073804;28;20040;-90
2021/03/16 10:47:48;;;;;;;0.22;0.00;;;16.00;63.40;;;;;;5057109;28;20032;-91
2021/03/16 10:50:15;;;;;;;0.28;0.20;;;16.00;62.80;;;;;;5038790;28;20045;-88
2021/03/16 10:52:41;;;;;;;1.08;0.50;;;16.00;62.60;;;;;;5044374;28;20047;-92
2021/03/16 10:55:07;;;;;;;1.38;0.20;;;16.10;62.60;;;;;;5053240;28;20039;-92
2021/03/16 10:57:33;;;;;;;2.03;0.25;;;16.20;62.40;;;;;;5055462;28;20040;-86
2021/03/16 11:00:04;;;;;;;0.55;0.20;;;16.40;62.00;;;;;;5040464;28;20043;-87
2021/03/16 11:02:30;;;;;;;1.23;0.20;;;16.50;61.70;;;;;;5054366;28;20044;-88
2021/03/16 11:04:56;;;;;;;2.53;0.50;;;16.60;61.50;;;;;;5057392;28;20655;-89
2021/03/16 11:07:22;;;;;;;2.38;0.38;;;16.80;61.40;;;;;;5040981;28;20032;-88
2021/03/16 11:09:48;;;;;;;1.85;0.30;;;17.00;60.90;;;;;;5053714;28;20021;-89
2021/03/16 11:12:17;;;;;;;0.88;0.10;;;17.30;60.80;;;;;;5075176;28;20024;-82
2021/03/16 11:14:43;;;;;;;1.42;0.45;;;17.60;60.30;;;;;;5075298;28;20039;-82
2021/03/16 11:17:10;;;;;;;0.88;0.30;;;17.70;60.10;;;;;;5072269;28;20504;-81
2021/03/16 11:19:36;;;;;;;1.30;0.30;;;17.70;59.70;;;;;;5056608;28;20110;-80
2021/03/16 11:22:03;;;;;;;0.00;0.00;;;17.70;59.80;;;;;;5055229;28;20481;-81
2021/03/16 11:24:29;;;;;;;3.20;0.43;;;17.50;60.00;;;;;;5071699;28;20032;-82
2021/03/16 11:26:55;;;;;;;1.95;0.32;;;17.60;60.40;;;;;;5057243;28;20036;-81
2021/03/16 11:29:21;;;;;;;3.60;0.57;;;17.70;60.10;;;;;;5074008;28;20339;-81
2021/03/16 11:31:47;;;;;;;2.83;0.60;;;17.70;60.00;;;;;;5074697;28;20041;-82
2021/03/16 11:34:13;;;;;;;1.23;0.22;;;17.80;60.00;;;;;;5057018;28;20028;-81
2021/03/16 11:36:39;;;;;;;1.35;0.20;;;18.00;59.70;;;;;;5053400;28;20052;-82
2021/03/16 11:39:05;;;;;;;0.75;0.43;;;18.10;59.50;;;;;;5041145;28;20044;-82
2021/03/16 11:41:32;;;;;;;0.82;0.22;;;18.00;59.20;;;;;;5057580;28;20033;-81
2021/03/16 11:43:58;;;;;;;0.75;0.20;;;17.90;59.20;;;;;;5074432;28;20037;-81
2021/03/16 11:46:24;;;;;;;0.52;0.30;;;17.90;59.30;;;;;;5071359;28;20044;-83
2021/03/16 11:48:50;;;;;;;0.03;0.00;;;17.80;59.40;;;;;;5067320;28;20033;-90
2021/03/16 11:51:16;;;;;;;0.00;0.00;;;17.90;59.40;;;;;;5057470;28;20047;-90
2021/03/16 11:53:42;;;;;;;0.40;0.10;;;18.00;59.40;;;;;;5047364;28;20047;-87
2021/03/16 11:56:08;;;;;;;0.70;0.15;;;18.00;59.30;;;;;;5061025;28;20485;-86
2021/03/16 11:58:34;;;;;;;0.38;0.13;;;17.90;59.10;;;;;;5057055;28;20035;-88
2021/03/16 12:01:01;;;;;;;0.10;0.10;;;17.80;59.40;;;;;;5036360;28;20041;-88
2021/03/16 12:03:28;;;;;;;0.55;0.17;;;17.90;59.50;;;;;;5054293;28;20493;-86
2021/03/16 12:05:54;;;;;;;0.05;0.00;;;18.10;59.30;;;;;;5041020;28;20040;-89
2021/03/16 12:08:20;;;;;;;0.20;0.10;;;18.20;59.20;;;;;;5054947;28;20044;-92
2021/03/16 12:10:46;;;;;;;0.80;0.22;;;18.20;59.20;;;;;;5067406;28;20038;-91
2021/03/16 12:13:13;;;;;;;0.10;0.00;;;18.30;59.20;;;;;;5058803;28;20035;-91
2021/03/16 12:15:39;;;;;;;0.20;0.10;;;18.30;58.90;;;;;;5052129;28;20032;-89
2021/03/16 12:18:05;;;;;;;0.50;0.10;;;18.20;58.90;;;;;;5040468;28;20488;-89
2021/03/16 12:20:31;;;;;;;0.10;0.00;;;18.10;59.20;;;;;;5040688;28;20105;-93
2021/03/16 12:22:57;;;;;;;0.68;0.10;;;18.10;59.00;;;;;;5037544;28;20036;-92
2021/03/16 12:25:24;;;;;;;0.30;0.17;;;18.00;59.10;;;;;;5065061;28;20039;-84
2021/03/16 12:27:51;;;;;;;0.10;0.00;;;17.90;59.30;;;;;;5051983;28;20041;-85
2021/03/16 12:30:18;;;;;;;0.20;0.20;;;17.80;59.40;;;;;;5072688;28;20028;-88
2021/03/16 12:32:44;;;;;;;0.57;0.00;;;17.60;59.60;;;;;;5027919;28;20075;-83
2021/03/16 12:35:12;;;;;;;0.28;0.20;;;17.60;59.80;;;;;;5056604;28;20036;-84
2021/03/16 12:37:38;;;;;;;1.63;0.00;;;17.40;59.80;;;;;;5023398;28;20040;-82
2021/03/16 12:40:05;;;;;;;0.70;0.15;;;17.30;60.00;;;;;;5043018;28;20048;-80
2021/03/16 12:42:34;;;;;;;1.27;0.32;;;17.20;60.20;;;;;;5071304;28;20469;-81
2021/03/16 12:45:01;;;;;;;0.70;0.30;;;17.10;60.40;;;;;;5055258;28;20044;-82
2021/03/16 12:47:27;;;;;;;0.43;0.10;;;17.00;60.70;;;;;;5055396;28;20047;-82
2021/03/16 12:49:54;;;;;;;0.40;0.20;;;16.90;60.90;;;;;;5036294;28;20041;-82
2021/03/16 12:52:20;;;;;;;0.30;0.00;;;16.90;60.90;;;;;;5029287;28;20035;-84
2021/03/16 12:54:46;;;;;;;2.65;0.25;;;16.90;60.90;;;;;;5073235;28;20039;-83